Time;durP1;ratioP1;P1;durP2;ratioP2;P2;SDS_P1;SDS_P2;PMS_P1;PMS_P2;Temp;Humidity;BMP_temperature;BMP_pressure;BME280_temperature;BME280_humidity;BME280_pressure;Samples;Min_cycle;Max_cycle;Signal;HPM_P1;HPM_P2
2022/04/28 00:01:54;;;;;;;6.63;6.13;;;;;;;5.18;98.31;101623.31;5074361;28;20175;-72
2022/04/28 00:04:19;;;;;;;8.07;6.20;;;;;;;5.06;98.53;101618.84;5074584;28;20267;-72
2022/04/28 00:06:45;;;;;;;7.60;6.07;;;;;;;5.05;98.72;101616.34;5076668;28;20670;-71
2022/04/28 00:09:10;;;;;;;6.70;5.60;;;;;;;5.05;98.79;101619.06;5075563;28;20173;-72
2022/04/28 00:11:36;;;;;;;6.30;5.63;;;;;;;5.00;99.21;101622.50;5074232;28;20229;-72
2022/04/28 00:14:01;;;;;;;7.97;5.60;;;;;;;4.95;99.61;101625.13;5074055;28;20249;-72
2022/04/28 00:16:27;;;;;;;6.50;5.40;;;;;;;4.92;99.99;101622.94;5074386;28;20261;-72
2022/04/28 00:18:53;;;;;;;6.43;5.40;;;;;;;4.88;100.00;101618.22;5073869;28;20183;-72
2022/04/28 00:21:20;;;;;;;6.30;5.57;;;;;;;4.88;100.00;101613.63;5073744;28;20295;-72
2022/04/28 00:23:46;;;;;;;8.23;6.67;;;;;;;4.92;100.00;101616.66;5055916;28;20626;-72
2022/04/28 00:26:11;;;;;;;6.37;5.77;;;;;;;4.92;100.00;101609.38;5073853;28;20171;-71
2022/04/28 00:28:36;;;;;;;7.23;5.93;;;;;;;4.85;100.00;101613.31;5073631;28;20174;-72
2022/04/28 00:31:02;;;;;;;8.00;5.43;;;;;;;4.74;100.00;101613.13;5073665;28;20697;-72
2022/04/28 00:33:27;;;;;;;6.90;6.10;;;;;;;4.69;100.00;101615.75;5073709;28;20182;-72
2022/04/28 00:35:55;;;;;;;6.17;5.57;;;;;;;4.62;100.00;101615.06;5073614;28;20716;-71
2022/04/28 00:38:21;;;;;;;9.27;6.50;;;;;;;4.58;100.00;101619.31;5073304;28;20269;-72
2022/04/28 00:40:47;;;;;;;7.93;6.07;;;;;;;4.58;100.00;101622.03;5073489;28;20273;-72
2022/04/28 00:43:18;;;;;;;8.97;6.40;;;;;;;4.51;100.00;101618.66;5073380;28;20190;-71
2022/04/28 00:45:48;;;;;;;8.20;6.53;;;;;;;4.46;100.00;101623.97;5073507;28;20187;-72
2022/04/28 00:51:06;;;;;;;6.77;6.07;;;;;;;4.41;100.00;101618.47;5041864;28;20210;-71
2022/04/28 00:53:36;;;;;;;7.03;5.50;;;;;;;4.42;100.00;101631.75;5073357;28;20170;-72
2022/04/28 00:56:02;;;;;;;7.10;6.40;;;;;;;4.43;100.00;101633.38;5073386;28;20276;-73
2022/04/28 00:58:28;;;;;;;6.43;5.10;;;;;;;4.45;100.00;101638.56;5072872;28;20562;-71
2022/04/28 01:00:54;;;;;;;5.97;5.27;;;;;;;4.42;100.00;101626.31;5073189;28;20170;-71
2022/04/28 01:03:20;;;;;;;6.80;5.97;;;;;;;4.40;100.00;101625.75;5073203;28;20631;-72
2022/04/28 01:05:46;;;;;;;5.83;5.33;;;;;;;4.46;100.00;101626.66;5073237;28;20174;-72
2022/04/28 01:08:12;;;;;;;6.40;5.80;;;;;;;4.44;100.00;101634.19;5072995;28;20171;-72
2022/04/28 01:10:37;;;;;;;9.17;7.03;;;;;;;4.47;100.00;101628.31;5073276;28;20193;-72
2022/04/28 01:13:03;;;;;;;7.33;5.70;;;;;;;4.53;100.00;101635.47;5072811;28;20213;-72
2022/04/28 01:15:28;;;;;;;9.23;6.67;;;;;;;4.51;100.00;101634.06;5072850;28;20178;-72
2022/04/28 01:17:54;;;;;;;9.07;7.00;;;;;;;4.47;100.00;101636.41;5073022;28;20177;-71
2022/04/28 01:20:19;;;;;;;6.57;5.97;;;;;;;4.40;100.00;101631.16;5072735;28;20166;-73
2022/04/28 01:22:45;;;;;;;7.03;6.33;;;;;;;4.35;100.00;101636.50;5054828;28;20166;-72
2022/04/28 01:25:11;;;;;;;10.83;6.33;;;;;;;4.32;100.00;101641.53;5073052;28;20212;-72
2022/04/28 01:27:37;;;;;;;6.67;5.67;;;;;;;4.23;100.00;101638.41;5072521;28;20187;-72
2022/04/28 01:30:04;;;;;;;10.57;6.77;;;;;;;4.26;100.00;101642.50;5072599;28;20171;-71
2022/04/28 01:32:29;;;;;;;7.47;6.77;;;;;;;4.17;100.00;101644.75;5072363;28;20691;-72
2022/04/28 01:34:55;;;;;;;7.83;6.97;;;;;;;4.18;100.00;101640.97;5072510;28;20182;-71
2022/04/28 01:37:20;;;;;;;8.90;7.33;;;;;;;4.16;100.00;101635.00;5072393;28;20254;-72
2022/04/28 01:39:46;;;;;;;7.60;6.90;;;;;;;4.25;100.00;101638.16;5054436;28;20253;-72
2022/04/28 01:42:11;;;;;;;7.00;6.30;;;;;;;4.27;100.00;101636.84;5072234;28;20544;-72
2022/04/28 01:44:36;;;;;;;7.47;5.67;;;;;;;4.24;100.00;101633.81;5072403;28;20726;-72
2022/04/28 01:47:02;;;;;;;8.77;6.83;;;;;;;4.18;100.00;101646.41;5072163;28;20178;-71
2022/04/28 01:49:28;;;;;;;7.23;6.43;;;;;;;4.14;100.00;101651.47;5072226;28;20184;-71
2022/04/28 01:57:21;;;;;;;6.97;6.13;;;;;;;4.01;100.00;101646.31;5071652;28;20185;-73
2022/04/28 01:59:46;;;;;;;10.10;6.57;;;;;;;4.00;100.00;101639.25;5072204;28;20175;-72
2022/04/28 02:02:12;;;;;;;8.83;5.73;;;;;;;4.03;100.00;101644.19;5071970;28;20190;-73
2022/04/28 02:04:38;;;;;;;7.77;6.87;;;;;;;3.98;100.00;101644.09;5071936;28;20198;-72
2022/04/28 02:07:03;;;;;;;8.47;5.90;;;;;;;3.97;100.00;101638.94;5054112;28;20681;-71
2022/04/28 02:09:29;;;;;;;10.40;6.53;;;;;;;3.93;100.00;101645.88;5071795;28;20185;-72
2022/04/28 02:11:54;;;;;;;11.47;6.43;;;;;;;3.93;100.00;101638.59;5071730;28;20293;-71
2022/04/28 02:14:19;;;;;;;7.60;6.40;;;;;;;3.94;100.00;101644.81;5071725;28;20178;-72
2022/04/28 02:16:45;;;;;;;17.77;6.30;;;;;;;3.99;100.00;101644.91;5071602;28;20177;-72
2022/04/28 02:19:10;;;;;;;8.10;6.67;;;;;;;4.06;100.00;101642.91;5071631;28;20174;-72
2022/04/28 02:21:35;;;;;;;7.27;6.57;;;;;;;4.01;100.00;101645.50;5071606;28;20611;-72
2022/04/28 02:24:01;;;;;;;9.00;7.07;;;;;;;3.93;100.00;101644.00;5071700;28;20589;-72
2022/04/28 02:26:26;;;;;;;7.30;6.20;;;;;;;3.90;100.00;101641.75;5071497;28;20178;-72
2022/04/28 02:28:52;;;;;;;9.37;6.67;;;;;;;3.92;100.00;101647.75;5071392;28;20166;-72
2022/04/28 02:31:17;;;;;;;8.60;6.53;;;;;;;3.85;100.00;101644.34;5071296;28;20207;-72
2022/04/28 02:33:42;;;;;;;9.17;5.77;;;;;;;3.78;100.00;101647.19;5071754;28;20265;-72
2022/04/28 02:36:08;;;;;;;7.67;6.53;;;;;;;3.72;100.00;101639.19;5071262;28;20324;-72
2022/04/28 02:38:34;;;;;;;6.60;5.90;;;;;;;3.69;100.00;101637.78;5071179;28;20187;-73
2022/04/28 02:40:59;;;;;;;6.63;5.73;;;;;;;3.60;100.00;101641.88;5071262;28;20313;-71
2022/04/28 02:43:24;;;;;;;7.57;6.27;;;;;;;3.56;100.00;101638.03;5071185;28;20183;-72
2022/04/28 02:45:50;;;;;;;10.03;6.50;;;;;;;3.56;100.00;101641.53;5071273;28;20542;-73
2022/04/28 02:48:15;;;;;;;10.67;5.53;;;;;;;3.57;100.00;101640.50;5070953;28;20173;-71
2022/04/28 02:50:41;;;;;;;9.83;6.80;;;;;;;3.55;100.00;101641.78;5071068;28;20173;-71
2022/04/28 02:53:06;;;;;;;10.10;5.63;;;;;;;3.51;100.00;101638.75;5053085;28;20210;-72
2022/04/28 02:55:32;;;;;;;10.57;6.07;;;;;;;3.52;100.00;101637.69;5071098;28;20261;-72
2022/04/28 02:57:57;;;;;;;12.73;5.57;;;;;;;3.53;100.00;101638.50;5070138;28;20170;-73
2022/04/28 03:00:23;;;;;;;6.83;5.67;;;;;;;3.45;100.00;101639.66;5070409;28;20182;-72
2022/04/28 03:02:48;;;;;;;9.20;7.03;;;;;;;3.42;100.00;101647.41;5070339;28;20669;-71
2022/04/28 03:05:13;;;;;;;5.20;4.70;;;;;;;3.33;100.00;101638.00;5070428;28;20224;-72
2022/04/28 03:10:50;;;;;;;6.47;5.67;;;;;;;3.22;100.00;101645.06;5070921;28;20635;-72
2022/04/28 03:13:21;;;;;;;9.47;6.53;;;;;;;3.16;100.00;101638.69;5070380;28;20177;-72
2022/04/28 03:15:47;;;;;;;7.93;6.00;;;;;;;3.14;100.00;101645.38;5070312;28;20177;-72
2022/04/28 03:18:13;;;;;;;6.60;5.50;;;;;;;3.22;100.00;101647.75;5070140;28;20171;-71
2022/04/28 03:20:39;;;;;;;9.67;5.37;;;;;;;3.25;100.00;101641.88;5070262;28;20169;-72
2022/04/28 03:23:05;;;;;;;11.43;6.60;;;;;;;3.23;100.00;101644.00;5070276;28;20709;-72
2022/04/28 03:25:31;;;;;;;7.53;6.60;;;;;;;3.20;100.00;101644.47;5070257;28;20167;-71
2022/04/28 03:27:57;;;;;;;9.73;5.63;;;;;;;3.26;100.00;101635.44;5051955;28;20210;-73
2022/04/28 03:30:22;;;;;;;6.27;5.63;;;;;;;3.21;100.00;101651.53;5070070;28;20198;-72
2022/04/28 03:32:48;;;;;;;4.97;4.57;;;;;;;3.11;100.00;101641.28;5070124;28;20209;-71
2022/04/28 03:35:14;;;;;;;9.20;5.87;;;;;;;3.07;100.00;101641.97;5070266;28;20205;-72
2022/04/28 03:37:40;;;;;;;7.17;5.40;;;;;;;3.08;100.00;101641.75;5070072;28;20675;-71
2022/04/28 03:40:06;;;;;;;5.97;5.37;;;;;;;3.03;100.00;101643.47;5069997;28;20170;-72
2022/04/28 03:42:31;;;;;;;9.83;5.70;;;;;;;3.02;100.00;101644.53;5069930;28;20186;-71
2022/04/28 03:44:57;;;;;;;6.47;5.67;;;;;;;2.94;100.00;101641.13;5070058;28;20178;-72
2022/04/28 03:47:22;;;;;;;6.20;5.40;;;;;;;2.94;100.00;101643.84;5069944;28;20182;-72
2022/04/28 03:49:47;;;;;;;10.20;5.40;;;;;;;2.96;100.00;101649.00;5069944;28;20210;-72
2022/04/28 03:52:13;;;;;;;7.43;5.30;;;;;;;2.90;100.00;101650.75;5069930;28;20442;-72
2022/04/28 03:54:38;;;;;;;9.10;5.80;;;;;;;2.88;100.00;101646.63;5070031;28;20610;-72
2022/04/28 03:57:04;;;;;;;8.50;6.20;;;;;;;2.81;100.00;101641.31;5069583;28;20178;-72
2022/04/28 03:59:30;;;;;;;10.30;5.37;;;;;;;2.77;100.00;101644.72;5069778;28;20175;-72
2022/04/28 04:01:55;;;;;;;7.40;5.43;;;;;;;2.80;100.00;101647.78;5069882;28;20220;-72
2022/04/28 04:04:20;;;;;;;10.60;5.97;;;;;;;2.85;100.00;101653.31;5069944;28;20545;-71
2022/04/28 04:06:46;;;;;;;7.50;5.83;;;;;;;2.88;100.00;101644.75;5051669;28;20190;-73
2022/04/28 04:09:11;;;;;;;7.13;5.77;;;;;;;2.86;100.00;101651.41;5069728;28;20178;-72
2022/04/28 04:11:36;;;;;;;9.33;5.67;;;;;;;2.82;100.00;101650.25;5069741;28;20238;-72
2022/04/28 04:14:02;;;;;;;13.53;5.13;;;;;;;2.82;100.00;101655.66;5069768;28;20179;-71
2022/04/28 04:16:27;;;;;;;7.63;5.20;;;;;;;2.80;100.00;101658.56;5069896;28;20208;-72
2022/04/28 04:18:52;;;;;;;8.40;4.97;;;;;;;2.82;100.00;101659.16;5070711;28;20175;-72
2022/04/28 04:21:20;;;;;;;7.13;5.67;;;;;;;2.81;100.00;101662.91;5073331;28;20527;-72
2022/04/28 04:23:45;;;;;;;8.87;5.17;;;;;;;2.85;100.00;101657.88;5073418;28;20171;-72
2022/04/28 04:26:11;;;;;;;10.97;5.90;;;;;;;2.87;100.00;101656.59;5073401;28;20178;-72
2022/04/28 04:28:36;;;;;;;6.13;5.60;;;;;;;2.89;100.00;101668.00;5073301;28;20206;-71
2022/04/28 04:33:45;;;;;;;8.57;5.77;;;;;;;3.04;100.00;101672.13;5073326;28;20236;-72
2022/04/28 04:36:10;;;;;;;7.97;5.87;;;;;;;3.14;100.00;101665.09;5073100;28;20642;-72
2022/04/28 04:38:35;;;;;;;7.83;5.70;;;;;;;3.20;100.00;101663.38;5054967;28;20186;-72
2022/04/28 04:41:01;;;;;;;11.13;5.67;;;;;;;3.24;100.00;101670.78;5073039;28;20194;-72
2022/04/28 04:43:26;;;;;;;7.83;5.83;;;;;;;3.31;100.00;101662.53;5073014;28;20273;-72
2022/04/28 04:45:52;;;;;;;5.60;5.10;;;;;;;3.44;100.00;101673.13;5073016;28;20210;-72
2022/04/28 04:48:17;;;;;;;12.27;6.57;;;;;;;3.57;100.00;101682.91;5072792;28;20216;-72
2022/04/28 04:50:42;;;;;;;6.93;6.23;;;;;;;3.73;100.00;101684.06;5072861;28;20759;-72
2022/04/28 04:53:08;;;;;;;10.10;7.13;;;;;;;3.85;100.00;101679.50;5072845;28;20570;-72
2022/04/28 04:55:34;;;;;;;9.13;6.07;;;;;;;3.99;100.00;101686.28;5072800;28;20182;-72
2022/04/28 04:58:00;;;;;;;9.63;6.97;;;;;;;4.07;100.00;101695.94;5072175;28;20570;-73
2022/04/28 05:00:25;;;;;;;9.33;6.03;;;;;;;4.15;100.00;101698.25;5072688;28;20263;-72
2022/04/28 05:02:50;;;;;;;7.30;6.27;;;;;;;4.23;100.00;101697.91;5073061;28;20179;-72
2022/04/28 05:05:16;;;;;;;10.13;6.93;;;;;;;4.34;100.00;101698.91;5072711;28;20261;-72
2022/04/28 05:07:42;;;;;;;9.43;7.03;;;;;;;4.42;100.00;101706.69;5072535;28;20306;-72
2022/04/28 05:10:08;;;;;;;8.17;7.00;;;;;;;4.54;100.00;101712.06;5072608;28;20174;-72
2022/04/28 05:12:34;;;;;;;14.87;6.97;;;;;;;4.64;100.00;101713.09;5072439;28;20206;-72
2022/04/28 05:14:59;;;;;;;8.80;6.43;;;;;;;4.75;100.00;101711.38;5072451;28;20185;-72
2022/04/28 05:17:24;;;;;;;8.47;6.43;;;;;;;4.82;100.00;101711.25;5072226;28;20170;-72
2022/04/28 05:19:50;;;;;;;6.20;5.63;;;;;;;4.89;100.00;101714.63;5072568;28;20538;-72
2022/04/28 05:22:15;;;;;;;10.50;6.20;;;;;;;4.98;100.00;101718.59;5072413;28;20259;-71
2022/04/28 05:24:40;;;;;;;10.80;6.97;;;;;;;5.00;99.79;101720.00;5072233;28;20637;-71
2022/04/28 05:27:06;;;;;;;8.13;5.47;;;;;;;5.05;99.05;101721.97;5072481;28;20175;-73
2022/04/28 05:29:31;;;;;;;9.10;6.90;;;;;;;5.08;98.32;101719.63;5071752;28;20183;-72
2022/04/28 05:31:57;;;;;;;7.03;6.10;;;;;;;5.16;97.14;101723.81;5071132;28;20202;-72
2022/04/28 05:34:22;;;;;;;9.27;6.40;;;;;;;5.19;96.90;101731.44;5072061;28;20622;-72
2022/04/28 05:36:48;;;;;;;6.73;5.37;;;;;;;5.22;96.84;101730.16;5071943;28;20438;-73
2022/04/28 05:39:15;;;;;;;8.40;6.07;;;;;;;5.23;95.81;101729.91;5071818;28;20182;-73
2022/04/28 05:41:40;;;;;;;7.20;5.73;;;;;;;5.31;95.97;101736.81;5071757;28;20186;-73
2022/04/28 05:46:51;;;;;;;11.20;6.57;;;;;;;5.46;94.94;101736.25;5071779;28;20533;-78
2022/04/28 05:49:17;;;;;;;7.10;5.33;;;;;;;5.55;94.75;101734.78;5071839;28;20175;-79
2022/04/28 05:51:42;;;;;;;5.77;5.23;;;;;;;5.66;94.71;101739.31;5071666;28;20554;-72
2022/04/28 05:54:07;;;;;;;12.17;5.77;;;;;;;5.73;93.87;101739.94;5070737;28;20263;-79
2022/04/28 05:56:34;;;;;;;7.67;6.20;;;;;;;5.78;92.81;101742.72;5048308;28;20550;-75
2022/04/28 05:58:59;;;;;;;6.47;5.73;;;;;;;5.82;92.14;101749.31;5052066;28;20183;-78
2022/04/28 06:01:24;;;;;;;11.10;6.23;;;;;;;5.81;93.01;101752.28;5051961;28;20705;-79
2022/04/28 06:03:50;;;;;;;9.63;6.77;;;;;;;5.79;92.97;101749.81;5052078;28;20175;-78
2022/04/28 06:06:15;;;;;;;6.37;5.77;;;;;;;5.80;93.25;101748.75;5052118;28;20294;-77
2022/04/28 06:08:40;;;;;;;9.73;5.37;;;;;;;5.81;93.23;101746.84;5033921;28;20237;-79
2022/04/28 06:11:06;;;;;;;7.70;6.30;;;;;;;5.84;92.48;101747.19;5052090;28;20630;-79
2022/04/28 06:13:31;;;;;;;7.10;5.87;;;;;;;5.88;92.38;101761.88;5051888;28;20657;-74
2022/04/28 06:15:58;;;;;;;7.83;5.73;;;;;;;5.96;92.16;101758.78;5052053;28;20233;-72
2022/04/28 06:18:24;;;;;;;6.63;5.90;;;;;;;6.02;92.13;101759.69;5051175;28;20183;-72
2022/04/28 06:20:49;;;;;;;7.17;6.47;;;;;;;6.09;92.52;101754.09;5051723;28;20186;-72
2022/04/28 06:23:15;;;;;;;8.47;6.43;;;;;;;6.13;92.43;101758.78;5051701;28;20179;-71
2022/04/28 06:25:40;;;;;;;7.93;7.13;;;;;;;6.20;92.89;101761.28;5051884;28;20175;-72
2022/04/28 06:28:06;;;;;;;8.03;5.93;;;;;;;6.21;92.92;101762.94;5051353;28;20228;-72
2022/04/28 06:30:32;;;;;;;8.93;7.00;;;;;;;6.24;92.34;101763.28;5051807;28;20631;-76
2022/04/28 06:32:57;;;;;;;12.40;8.10;;;;;;;6.38;92.03;101771.06;5033731;28;20260;-71
2022/04/28 06:35:22;;;;;;;7.80;7.10;;;;;;;6.47;91.56;101775.78;5051434;28;20635;-72
2022/04/28 06:37:48;;;;;;;9.47;6.23;;;;;;;6.55;90.77;101769.13;5051314;28;20185;-72
2022/04/28 06:40:13;;;;;;;10.53;6.80;;;;;;;6.65;90.96;101769.22;5048178;28;20623;-73
2022/04/28 06:42:43;;;;;;;11.60;6.40;;;;;;;6.71;89.61;101772.84;5050716;28;20202;-74
2022/04/28 06:45:10;;;;;;;14.03;6.70;;;;;;;6.79;88.70;101769.66;5051222;28;20176;-73
2022/04/28 06:47:35;;;;;;;8.17;7.37;;;;;;;6.94;87.94;101783.44;5051038;28;20270;-72
2022/04/28 06:50:01;;;;;;;12.37;7.33;;;;;;;7.13;87.88;101779.31;5051271;28;20719;-74
2022/04/28 06:52:26;;;;;;;9.93;6.37;;;;;;;7.26;83.47;101774.56;5050980;28;20627;-73
2022/04/28 06:54:51;;;;;;;11.70;7.17;;;;;;;7.49;82.89;101773.41;5051285;28;20263;-73
2022/04/28 06:57:17;;;;;;;10.87;7.40;;;;;;;7.61;82.42;101777.59;5050902;28;20182;-75
2022/04/28 06:59:42;;;;;;;7.63;6.83;;;;;;;7.67;81.42;101773.88;5051331;28;20183;-72
2022/04/28 07:02:09;;;;;;;10.20;6.63;;;;;;;7.76;81.29;101780.44;5050930;28;20175;-73
2022/04/28 07:04:34;;;;;;;10.37;6.87;;;;;;;7.71;80.79;101772.25;5050991;28;20163;-72
2022/04/28 07:07:00;;;;;;;7.67;6.83;;;;;;;7.61;79.28;101780.31;5050780;28;20182;-73
2022/04/28 07:09:25;;;;;;;11.23;7.00;;;;;;;7.72;80.35;101771.16;5050975;28;20219;-71
2022/04/28 07:11:50;;;;;;;8.93;6.73;;;;;;;7.76;81.28;101774.19;5052262;28;20202;-72
2022/04/28 07:14:16;;;;;;;8.63;6.00;;;;;;;7.91;80.38;101776.22;5047998;28;20184;-75
2022/04/28 07:16:42;;;;;;;9.77;7.30;;;;;;;8.02;79.34;101780.66;5050696;28;20481;-72
2022/04/28 07:19:08;;;;;;;11.93;6.97;;;;;;;8.01;79.10;101788.00;5050691;28;20172;-72
2022/04/28 07:21:34;;;;;;;9.03;6.80;;;;;;;8.17;79.61;101783.47;5050858;28;20187;-72
2022/04/28 07:23:59;;;;;;;9.83;7.10;;;;;;;8.29;78.29;101792.28;5050749;28;20179;-74
2022/04/28 07:26:25;;;;;;;9.83;5.63;;;;;;;8.25;76.85;101788.44;5050844;28;20186;-76
2022/04/28 07:28:50;;;;;;;11.70;7.37;;;;;;;8.38;75.85;101789.88;5050901;28;20207;-75
2022/04/28 07:31:15;;;;;;;9.23;6.77;;;;;;;8.31;75.31;101790.09;5050778;28;20182;-75
2022/04/28 07:33:41;;;;;;;8.37;5.77;;;;;;;8.39;75.57;101790.72;5050552;28;20179;-74
2022/04/28 07:36:06;;;;;;;10.70;6.50;;;;;;;8.51;75.89;101792.13;5051212;28;20185;-73
2022/04/28 07:38:32;;;;;;;7.83;6.63;;;;;;;8.79;75.25;101790.09;5050545;28;20250;-81
2022/04/28 07:40:57;;;;;;;7.07;6.37;;;;;;;8.85;74.24;101799.94;5050601;28;20730;-76
2022/04/28 07:43:25;;;;;;;7.57;5.07;;;;;;;8.78;74.79;101792.00;5050514;28;20282;-75
2022/04/28 07:45:50;;;;;;;12.67;6.67;;;;;;;8.75;75.03;101795.25;5050855;28;20171;-82
2022/04/28 07:48:16;;;;;;;8.40;6.50;;;;;;;8.73;74.83;101792.00;5050207;28;20657;-82
2022/04/28 07:50:41;;;;;;;8.53;5.70;;;;;;;8.56;73.97;101796.81;5050326;28;20221;-76
2022/04/28 07:53:06;;;;;;;6.70;6.03;;;;;;;8.75;74.46;101789.81;5050382;28;20199;-80
2022/04/28 07:55:32;;;;;;;9.07;6.33;;;;;;;8.87;73.66;101795.03;5054284;28;20514;-77
2022/04/28 07:57:57;;;;;;;11.83;6.30;;;;;;;8.88;73.61;101788.50;5054075;28;20214;-74
2022/04/28 08:00:22;;;;;;;11.13;5.70;;;;;;;8.88;73.91;101786.59;5052833;28;20187;-74
2022/04/28 08:02:48;;;;;;;5.67;5.13;;;;;;;9.11;72.48;101792.66;5054747;28;20175;-75
2022/04/28 08:05:13;;;;;;;9.63;6.27;;;;;;;8.88;72.12;101793.97;5054064;28;20175;-75
2022/04/28 08:07:38;;;;;;;6.70;6.00;;;;;;;9.00;72.90;101797.28;5054080;28;20181;-73
2022/04/28 08:10:04;;;;;;;8.43;6.33;;;;;;;9.18;73.31;101796.78;5054096;28;20178;-73
2022/04/28 08:12:29;;;;;;;10.83;5.97;;;;;;;9.10;71.78;101796.47;5054115;28;20278;-73
2022/04/28 08:14:55;;;;;;;8.00;6.10;;;;;;;9.29;72.83;101796.81;5054171;28;20171;-73
2022/04/28 08:17:20;;;;;;;6.87;5.13;;;;;;;9.20;71.59;101807.41;5054326;28;20206;-74
2022/04/28 08:19:45;;;;;;;8.47;5.97;;;;;;;9.33;71.94;101798.72;5054046;28;20631;-74
2022/04/28 08:22:11;;;;;;;10.10;5.97;;;;;;;9.42;71.98;101797.13;5053944;28;20179;-73
2022/04/28 08:24:36;;;;;;;7.23;5.77;;;;;;;9.71;72.25;101804.78;5053890;28;20171;-73
2022/04/28 08:27:02;;;;;;;7.77;6.10;;;;;;;9.73;70.42;101800.69;5053828;28;20507;-73
2022/04/28 08:29:28;;;;;;;8.23;5.63;;;;;;;9.67;70.21;101798.22;5053703;28;20198;-75
2022/04/28 08:31:53;;;;;;;5.83;5.30;;;;;;;9.83;70.54;101808.03;5035607;28;20770;-75
2022/04/28 08:34:19;;;;;;;10.23;6.30;;;;;;;9.96;70.73;101804.78;5053601;28;20173;-75
2022/04/28 08:36:47;;;;;;;7.70;4.57;;;;;;;9.86;69.70;101803.97;5053647;28;20229;-73
2022/04/28 08:39:13;;;;;;;9.27;6.57;;;;;;;9.82;70.14;101812.69;5053462;28;20180;-74
2022/04/28 08:41:47;;;;;;;9.40;5.67;;;;;;;9.87;70.64;101814.63;5053515;28;20171;-74
2022/04/28 08:44:32;;;;;;;6.93;5.80;;;;;;;10.02;71.86;101809.16;5050155;28;20170;-75
2022/04/28 08:46:59;;;;;;;9.70;6.70;;;;;;;10.07;70.08;101811.06;5052737;28;20264;-73
2022/04/28 08:49:28;;;;;;;9.07;5.27;;;;;;;10.19;69.90;101813.50;5033203;28;20661;-73
2022/04/28 08:51:55;;;;;;;8.00;6.50;;;;;;;10.09;68.28;101809.69;5052487;28;20205;-73
2022/04/28 08:54:23;;;;;;;8.27;5.87;;;;;;;10.12;68.32;101820.06;5052508;28;20175;-73
2022/04/28 08:56:54;;;;;;;10.03;6.13;;;;;;;10.33;68.30;101814.63;5052729;28;20168;-74
2022/04/28 08:59:20;;;;;;;7.00;6.20;;;;;;;10.41;68.50;101808.56;5052882;28;20225;-74
2022/04/28 09:01:46;;;;;;;5.97;5.30;;;;;;;10.63;68.00;101813.72;5052775;28;20569;-74
2022/04/28 09:04:12;;;;;;;10.47;5.83;;;;;;;10.67;68.28;101812.88;5052107;28;20171;-75
2022/04/28 09:06:40;;;;;;;7.33;5.37;;;;;;;10.79;68.71;101812.56;5052603;28;20224;-74
2022/04/28 09:09:11;;;;;;;9.40;7.40;;;;;;;10.79;67.96;101819.94;5052372;28;20171;-74
2022/04/28 09:11:39;;;;;;;6.97;5.20;;;;;;;10.81;67.74;101820.50;5052509;28;20348;-74
2022/04/28 09:14:10;;;;;;;9.30;7.37;;;;;;;10.83;68.36;101829.22;5052574;28;20171;-74
2022/04/28 09:16:48;;;;;;;9.73;7.43;;;;;;;10.91;68.52;101824.00;5052572;28;20382;-74
2022/04/28 09:19:24;;;;;;;6.67;6.07;;;;;;;10.77;66.65;101822.16;5052527;28;20485;-74
2022/04/28 09:21:52;;;;;;;11.27;7.73;;;;;;;10.77;66.77;101827.63;5052562;28;20171;-74
2022/04/28 09:24:18;;;;;;;7.67;5.33;;;;;;;10.87;67.72;101831.13;5052254;28;20172;-74
2022/04/28 09:26:43;;;;;;;9.87;6.57;;;;;;;11.06;68.35;101814.09;5052163;28;20179;-75
2022/04/28 09:29:15;;;;;;;7.10;6.50;;;;;;;11.10;68.37;101817.91;5052110;28;20179;-73
2022/04/28 09:31:43;;;;;;;11.67;8.07;;;;;;;11.13;67.30;101818.16;5052167;28;20234;-73
2022/04/28 09:34:11;;;;;;;7.07;4.47;;;;;;;10.98;66.95;101818.22;5052277;28;20189;-74
2022/04/28 09:36:38;;;;;;;9.30;8.50;;;;;;;11.10;67.69;101817.91;5051943;28;20569;-74
2022/04/28 09:39:05;;;;;;;9.97;7.23;;;;;;;11.27;66.49;101821.91;5051773;28;20175;-73
2022/04/28 09:44:16;;;;;;;9.77;7.60;;;;;;;11.48;66.45;101814.41;5052362;28;20545;-73
2022/04/28 09:46:43;;;;;;;8.20;7.40;;;;;;;11.37;65.20;101807.34;5051873;28;20540;-74
2022/04/28 09:49:11;;;;;;;9.57;8.10;;;;;;;11.50;65.54;101819.59;5051781;28;20383;-74
2022/04/28 09:51:38;;;;;;;9.63;8.67;;;;;;;11.13;64.21;101809.94;5051730;28;20262;-74
2022/04/28 09:54:07;;;;;;;9.57;8.27;;;;;;;11.37;65.54;101801.88;5051895;28;20183;-74
2022/04/28 09:56:34;;;;;;;10.63;8.93;;;;;;;11.47;66.13;101810.03;5051785;28;20174;-74
2022/04/28 09:59:00;;;;;;;9.67;6.60;;;;;;;11.60;65.23;101803.94;5051526;28;20167;-73
2022/04/28 10:01:28;;;;;;;11.10;7.50;;;;;;;11.57;65.09;101799.03;5051987;28;20178;-74
2022/04/28 10:03:53;;;;;;;13.20;9.07;;;;;;;11.72;64.89;101792.63;5051075;28;20229;-73
2022/04/28 10:06:21;;;;;;;9.77;8.17;;;;;;;11.77;64.25;101798.06;5051523;28;20168;-73
2022/04/28 10:08:47;;;;;;;12.40;8.77;;;;;;;12.00;65.91;101795.69;5051242;28;20218;-73
2022/04/28 10:11:19;;;;;;;11.13;7.40;;;;;;;12.15;65.68;101792.81;5051531;28;20563;-74
2022/04/28 10:13:46;;;;;;;8.90;7.87;;;;;;;12.16;64.56;101794.47;5045787;28;20230;-73
2022/04/28 10:16:13;;;;;;;8.63;7.63;;;;;;;12.27;63.62;101797.91;5045245;28;20627;-73
2022/04/28 10:18:44;;;;;;;9.70;8.30;;;;;;;12.39;63.71;101795.59;5036365;28;20249;-74
2022/04/28 10:21:14;;;;;;;11.03;8.07;;;;;;;12.43;63.53;101793.88;5050680;28;20175;-75
2022/04/28 10:35:05;;;;;;;8.50;7.60;;;;;;;12.70;62.30;101790.56;5050821;28;20182;-73
2022/04/28 10:37:36;;;;;;;9.90;7.60;;;;;;;12.84;61.72;101791.50;5049643;28;20163;-74
2022/04/28 10:40:03;;;;;;;10.73;7.03;;;;;;;12.98;61.33;101799.81;5050882;28;20482;-66
2022/04/28 10:42:28;;;;;;;7.47;6.80;;;;;;;12.69;61.72;101797.16;5050813;28;20183;-73
2022/04/28 10:44:57;;;;;;;9.23;8.07;;;;;;;12.40;61.08;101791.75;5050830;28;20186;-74
2022/04/28 10:47:42;;;;;;;7.97;7.20;;;;;;;12.67;61.18;101791.97;5050575;28;20167;-74
2022/04/28 10:50:31;;;;;;;10.63;8.60;;;;;;;12.45;60.57;101778.81;5048943;28;20179;-74
2022/04/28 10:53:01;;;;;;;8.40;7.60;;;;;;;12.70;60.66;101780.41;5050613;28;20199;-74
2022/04/28 10:55:50;;;;;;;10.03;7.03;;;;;;;13.07;60.30;101784.34;5050786;28;20175;-75
2022/04/28 10:58:25;;;;;;;7.83;7.13;;;;;;;13.24;59.23;101776.44;5050479;28;20186;-73
2022/04/28 11:00:54;;;;;;;8.30;7.50;;;;;;;13.44;58.53;101786.31;5049168;28;20171;-73
2022/04/28 11:03:58;;;;;;;8.50;7.70;;;;;;;13.46;59.02;101775.06;5050521;28;20186;-74
2022/04/28 11:06:41;;;;;;;7.80;5.33;;;;;;;13.54;59.15;101788.09;5050492;28;20166;-74
2022/04/28 11:09:08;;;;;;;5.60;4.83;;;;;;;13.33;58.01;101780.19;5050307;28;20175;-73
2022/04/28 11:11:43;;;;;;;7.50;6.80;;;;;;;13.09;59.42;101774.72;5050318;28;20217;-74
2022/04/28 11:14:09;;;;;;;10.93;6.83;;;;;;;13.26;59.98;101773.41;5050486;28;20248;-73
2022/04/28 11:16:35;;;;;;;8.33;6.63;;;;;;;13.18;60.34;101774.06;5050314;28;20439;-74
2022/04/28 11:19:01;;;;;;;6.97;6.07;;;;;;;13.51;60.76;101774.97;5050265;28;20389;-74
2022/04/28 11:21:28;;;;;;;6.47;5.80;;;;;;;13.75;60.09;101774.88;5050195;28;20175;-73
2022/04/28 11:23:54;;;;;;;4.17;3.87;;;;;;;13.68;59.67;101778.78;5049807;28;20265;-73
2022/04/28 11:26:20;;;;;;;11.47;6.37;;;;;;;13.49;59.58;101764.28;5050252;28;20301;-73
2022/04/28 11:28:46;;;;;;;8.07;7.17;;;;;;;13.56;59.27;101767.44;5049017;28;20645;-73
2022/04/28 11:31:18;;;;;;;4.50;3.93;;;;;;;13.53;59.98;101765.31;5050012;28;20179;-74
2022/04/28 11:33:48;;;;;;;12.50;8.23;;;;;;;13.60;59.92;101764.94;5050234;28;20185;-73
2022/04/28 11:36:28;;;;;;;8.40;7.20;;;;;;;13.76;58.57;101768.25;5050028;28;20182;-73
2022/04/28 11:39:01;;;;;;;8.07;7.27;;;;;;;13.73;58.28;101764.16;5050094;28;20543;-74
2022/04/28 11:41:30;;;;;;;10.57;6.90;;;;;;;13.69;59.51;101766.69;5050120;28;20254;-73
2022/04/28 11:43:59;;;;;;;7.30;6.67;;;;;;;14.04;59.54;101764.47;5050090;28;20266;-73
2022/04/28 11:46:24;;;;;;;10.40;7.20;;;;;;;13.51;59.26;101764.78;5050351;28;20568;-73
2022/04/28 11:48:53;;;;;;;8.53;7.77;;;;;;;13.19;59.46;101762.00;5050181;28;20210;-74
2022/04/28 11:51:23;;;;;;;7.93;7.13;;;;;;;13.82;61.59;101756.88;5048682;28;20171;-74
2022/04/28 11:53:48;;;;;;;7.07;6.30;;;;;;;14.30;59.87;101748.28;5050220;28;20167;-73
2022/04/28 11:56:16;;;;;;;7.63;6.83;;;;;;;14.45;58.71;101753.53;5050222;28;20641;-73